Terminal Aerodrome Forecast
Issued by NWS Wilmington, OH

Current Version | Previous Version | Graphics & Text | Print | Product List | Glossary On
Versions: 1 2 3 4 5 6 7 8 9 10 11 12
000
FTUS41 KILN 222338
TAFCMH
TAF
KCMH 222338Z 2300/2324 03012KT P6SM BKN150
     FM230300 03010KT P6SM BKN250
     FM231300 05012G18KT P6SM SCT250=

USA.gov is the U.S. government's official web portal to all federal, state and local government web resources and services.